createdAt,value
2023-01-08T00:00:47.961Z,2.843
2023-01-08T00:01:47.967Z,2.858
2023-01-08T00:02:48.088Z,2.827
2023-01-08T00:03:48.220Z,2.827
2023-01-08T00:04:48.071Z,2.827
2023-01-08T00:05:48.113Z,2.843
2023-01-08T00:06:48.153Z,2.843
2023-01-08T00:07:48.200Z,2.843
2023-01-08T00:08:48.217Z,2.79
2023-01-08T00:09:48.254Z,2.79
2023-01-08T00:10:48.279Z,2.758
2023-01-08T00:11:48.325Z,2.758
2023-01-08T00:12:48.360Z,2.774
2023-01-08T00:13:48.426Z,2.758
2023-01-08T00:14:48.457Z,2.758
2023-01-08T00:15:48.487Z,2.758
2023-01-08T00:16:48.611Z,2.768
2023-01-08T00:17:48.551Z,2.774
2023-01-08T00:18:48.594Z,2.768
2023-01-08T00:19:48.651Z,2.768
2023-01-08T00:20:48.658Z,2.752
2023-01-08T00:21:48.693Z,2.752
2023-01-08T00:22:48.727Z,2.752
2023-01-08T00:23:48.772Z,2.736
2023-01-08T00:24:48.848Z,2.752
2023-01-08T00:25:48.841Z,2.736
2023-01-08T00:26:48.868Z,2.736
2023-01-08T00:27:48.903Z,2.771
2023-01-08T00:28:48.945Z,2.714
2023-01-08T00:29:48.989Z,2.696
2023-01-08T00:30:49.148Z,2.68
2023-01-08T00:31:49.055Z,2.68
2023-01-08T00:32:49.087Z,2.711
2023-01-08T00:33:49.132Z,2.711
2023-01-08T00:34:49.168Z,2.711
2023-01-08T00:35:49.214Z,2.727
2023-01-08T00:36:49.238Z,2.704
2023-01-08T00:37:49.286Z,2.72
2023-01-08T00:38:49.305Z,2.72
2023-01-08T00:39:49.348Z,2.735
2023-01-08T00:40:49.372Z,2.683
2023-01-08T00:41:49.418Z,2.683
2023-01-08T00:42:49.479Z,2.668
2023-01-08T00:43:49.484Z,2.683
2023-01-08T00:44:49.529Z,2.676
2023-01-08T00:45:49.599Z,2.676
2023-01-08T00:46:49.604Z,2.692
2023-01-08T00:47:49.660Z,2.707
2023-01-08T00:48:49.668Z,2.685
2023-01-08T00:49:49.732Z,2.7
2023-01-08T00:50:49.760Z,2.716
2023-01-08T00:51:49.779Z,2.731
2023-01-08T00:52:49.818Z,2.731
2023-01-08T00:53:49.889Z,2.709
2023-01-08T00:54:49.891Z,2.731
2023-01-08T00:55:49.930Z,2.731
2023-01-08T00:56:49.971Z,2.731
2023-01-08T00:57:49.999Z,2.694
2023-01-08T00:58:50.051Z,2.709
2023-01-08T00:59:50.115Z,2.709
2023-01-08T01:00:50.152Z,2.74
2023-01-08T01:01:50.303Z,2.707
2023-01-08T01:02:50.195Z,2.687
2023-01-08T01:03:50.250Z,2.672
2023-01-08T01:04:50.265Z,2.687
2023-01-08T01:05:50.279Z,2.687
2023-01-08T01:06:50.314Z,2.687
2023-01-08T01:07:50.368Z,2.672
2023-01-08T01:08:50.387Z,2.687
2023-01-08T01:09:50.432Z,2.672
2023-01-08T01:10:50.464Z,2.672
2023-01-08T01:11:50.505Z,2.672
2023-01-08T01:12:50.579Z,2.656
2023-01-08T01:13:50.580Z,2.656
2023-01-08T01:14:50.625Z,2.672
2023-01-08T01:15:50.663Z,2.672
2023-01-08T01:16:50.760Z,2.69
2023-01-08T01:17:50.751Z,2.707
2023-01-08T01:18:50.773Z,2.664
2023-01-08T01:19:50.818Z,2.647
2023-01-08T01:20:50.832Z,2.632
2023-01-08T01:21:50.872Z,2.632
2023-01-08T01:22:50.918Z,2.647
2023-01-08T01:23:50.952Z,2.647
2023-01-08T01:24:50.988Z,2.625
2023-01-08T01:25:51.024Z,2.64
2023-01-08T01:26:51.064Z,2.625
2023-01-08T01:27:51.097Z,2.64
2023-01-08T01:28:51.136Z,2.671
2023-01-08T01:29:51.209Z,2.655
2023-01-08T01:30:51.284Z,2.633
2023-01-08T01:31:51.232Z,2.648
2023-01-08T01:32:51.266Z,2.648
2023-01-08T01:33:51.326Z,2.579
2023-01-08T01:34:51.365Z,2.595
2023-01-08T01:35:51.392Z,2.595
2023-01-08T01:36:51.453Z,2.61
2023-01-08T01:37:51.479Z,2.604
2023-01-08T01:38:51.498Z,2.604
2023-01-08T01:39:51.543Z,2.604
2023-01-08T01:40:51.585Z,2.619
2023-01-08T01:41:51.623Z,2.619
2023-01-08T01:42:51.682Z,2.619
2023-01-08T01:43:51.717Z,2.635
2023-01-08T01:44:51.739Z,2.612
2023-01-08T01:45:51.833Z,2.559
2023-01-08T01:46:51.786Z,2.559
2023-01-08T01:47:51.844Z,2.574
2023-01-08T01:48:51.869Z,2.559
2023-01-08T01:49:51.919Z,2.551
2023-01-08T01:50:51.953Z,2.566
2023-01-08T01:51:51.991Z,2.582
2023-01-08T01:52:52.037Z,2.582
2023-01-08T01:53:52.072Z,2.56
2023-01-08T01:54:52.099Z,2.56
2023-01-08T01:55:52.120Z,2.592
2023-01-08T01:56:52.154Z,2.592
2023-01-08T01:57:52.199Z,2.555
2023-01-08T01:58:52.265Z,2.548
2023-01-08T01:59:52.266Z,2.563
2023-01-08T02:00:52.421Z,2.563
2023-01-08T02:01:52.552Z,2.563
2023-01-08T02:02:52.361Z,2.578
2023-01-08T02:03:52.480Z,2.555
2023-01-08T02:04:52.440Z,2.571
2023-01-08T02:05:52.473Z,2.586
2023-01-08T02:06:52.516Z,2.601
2023-01-08T02:07:52.568Z,2.616
2023-01-08T02:08:52.609Z,2.616
2023-01-08T02:09:52.639Z,2.616
2023-01-08T02:10:52.677Z,2.616
2023-01-08T02:11:52.723Z,2.581
2023-01-08T02:12:52.759Z,2.543
2023-01-08T02:13:52.809Z,2.543
2023-01-08T02:14:52.830Z,2.558
2023-01-08T02:15:52.867Z,2.558
2023-01-08T02:16:52.913Z,2.535
2023-01-08T02:17:52.930Z,2.55
2023-01-08T02:18:52.979Z,2.566
2023-01-08T02:19:53.002Z,2.566
2023-01-08T02:20:53.048Z,2.581
2023-01-08T02:21:53.068Z,2.559
2023-01-08T02:22:53.108Z,2.574
2023-01-08T02:23:53.155Z,2.574
2023-01-08T02:24:53.185Z,2.531
2023-01-08T02:25:53.227Z,2.528
2023-01-08T02:26:53.248Z,2.543
2023-01-08T02:27:53.297Z,2.543
2023-01-08T02:28:53.349Z,2.543
2023-01-08T02:29:53.374Z,2.558
2023-01-08T02:30:53.471Z,2.543
2023-01-08T02:31:53.449Z,2.558
2023-01-08T02:32:53.484Z,2.573
2023-01-08T02:33:53.592Z,2.591
2023-01-08T02:34:53.557Z,2.591
2023-01-08T02:35:53.587Z,2.515
2023-01-08T02:36:53.628Z,2.515
2023-01-08T02:37:53.659Z,2.515
2023-01-08T02:38:53.737Z,2.53
2023-01-08T02:39:53.745Z,2.53
2023-01-08T02:40:53.772Z,2.53
2023-01-08T02:41:53.833Z,2.53
2023-01-08T02:42:53.842Z,2.53
2023-01-08T02:43:53.891Z,2.507
2023-01-08T02:44:53.916Z,2.507
2023-01-08T02:45:53.993Z,2.522
2023-01-08T02:46:53.993Z,2.537
2023-01-08T02:47:54.030Z,2.522
2023-01-08T02:48:54.075Z,2.484
2023-01-08T02:49:54.105Z,2.499
2023-01-08T02:50:54.143Z,2.499
2023-01-08T02:51:54.174Z,2.499
2023-01-08T02:52:54.202Z,2.514
2023-01-08T02:53:54.248Z,2.514
2023-01-08T02:54:54.265Z,2.499
2023-01-08T02:55:54.313Z,2.499
2023-01-08T02:56:54.340Z,2.476
2023-01-08T02:57:54.393Z,2.491
2023-01-08T02:58:54.447Z,2.491
2023-01-08T02:59:54.443Z,2.491
2023-01-08T03:00:54.510Z,2.491
2023-01-08T03:01:54.711Z,2.506
2023-01-08T03:02:54.545Z,2.483
2023-01-08T03:03:54.670Z,2.483
2023-01-08T03:04:54.633Z,2.498
2023-01-08T03:05:54.657Z,2.498
2023-01-08T03:06:54.714Z,2.498
2023-01-08T03:07:54.744Z,2.498
2023-01-08T03:08:54.778Z,2.498
2023-01-08T03:09:54.847Z,2.476
2023-01-08T03:10:54.890Z,2.461
2023-01-08T03:11:54.880Z,2.461
2023-01-08T03:12:54.919Z,2.476
2023-01-08T03:13:54.945Z,2.491
2023-01-08T03:14:54.992Z,2.488
2023-01-08T03:15:55.058Z,2.503
2023-01-08T03:16:55.131Z,2.478
2023-01-08T03:17:55.093Z,2.478
2023-01-08T03:18:55.140Z,2.492
2023-01-08T03:19:55.174Z,2.507
2023-01-08T03:20:55.207Z,2.507
2023-01-08T03:21:55.239Z,2.539
2023-01-08T03:22:55.268Z,2.539
2023-01-08T03:23:55.316Z,2.539
2023-01-08T03:24:55.341Z,2.539
2023-01-08T03:25:55.385Z,2.531
2023-01-08T03:26:55.412Z,2.478
2023-01-08T03:27:55.456Z,2.501
2023-01-08T03:28:55.504Z,2.516
2023-01-08T03:29:55.571Z,2.501
2023-01-08T03:30:55.665Z,2.478
2023-01-08T03:31:55.604Z,2.478
2023-01-08T03:32:55.673Z,2.478
2023-01-08T03:33:55.669Z,2.478
2023-01-08T03:34:55.702Z,2.478
2023-01-08T03:35:55.752Z,2.478
2023-01-08T03:36:55.768Z,2.478
2023-01-08T03:37:55.805Z,2.478
2023-01-08T03:38:55.837Z,2.478
2023-01-08T03:39:55.881Z,2.464
2023-01-08T03:40:55.910Z,2.478
2023-01-08T03:41:55.951Z,2.464
2023-01-08T03:42:55.992Z,2.41
2023-01-08T03:43:56.043Z,2.41
2023-01-08T03:44:56.054Z,2.41
2023-01-08T03:45:56.162Z,2.41
2023-01-08T03:46:56.119Z,2.41
2023-01-08T03:47:56.152Z,2.388
2023-01-08T03:48:56.207Z,2.374
2023-01-08T03:49:56.234Z,2.341
2023-01-08T03:50:56.338Z,2.305
2023-01-08T03:51:56.299Z,2.282
2023-01-08T03:52:56.347Z,2.3
2023-01-08T03:53:56.378Z,2.303
2023-01-08T03:54:56.412Z,2.303
2023-01-08T03:55:56.484Z,2.249
2023-01-08T03:56:56.491Z,2.242
2023-01-08T03:57:56.525Z,2.242
2023-01-08T03:58:56.580Z,2.257
2023-01-08T03:59:56.592Z,2.287
2023-01-08T04:00:56.655Z,2.301
2023-01-08T04:01:56.823Z,2.316
2023-01-08T04:02:56.718Z,2.316
2023-01-08T04:03:56.735Z,2.298
2023-01-08T04:04:56.767Z,2.277
2023-01-08T04:05:56.805Z,2.292
2023-01-08T04:06:56.840Z,2.292
2023-01-08T04:07:56.906Z,2.307
2023-01-08T04:08:56.923Z,2.307
2023-01-08T04:09:56.937Z,2.321
2023-01-08T04:10:56.981Z,2.321
2023-01-08T04:11:57.016Z,2.336
2023-01-08T04:12:57.055Z,2.336
2023-01-08T04:13:57.114Z,2.313
2023-01-08T04:14:57.118Z,2.298
2023-01-08T04:15:57.189Z,2.298
2023-01-08T04:16:57.188Z,2.284
2023-01-08T04:17:57.229Z,2.284
2023-01-08T04:18:57.279Z,2.284
2023-01-08T04:19:57.304Z,2.298
2023-01-08T04:20:57.357Z,2.298
2023-01-08T04:21:57.368Z,2.298
2023-01-08T04:22:57.410Z,2.298
2023-01-08T04:23:57.436Z,2.313
2023-01-08T04:24:57.477Z,2.298
2023-01-08T04:25:57.536Z,2.321
2023-01-08T04:26:57.564Z,2.307
2023-01-08T04:27:57.587Z,2.269
2023-01-08T04:28:57.619Z,2.292
2023-01-08T04:29:57.654Z,2.269
2023-01-08T04:30:57.773Z,2.292
2023-01-08T04:31:57.729Z,2.269
2023-01-08T04:32:57.768Z,2.292
2023-01-08T04:33:57.779Z,2.269
2023-01-08T04:34:57.823Z,2.269
2023-01-08T04:35:57.860Z,2.269
2023-01-08T04:36:57.897Z,2.269
2023-01-08T04:37:57.966Z,2.269
2023-01-08T04:38:57.977Z,2.284
2023-01-08T04:39:58.016Z,2.262
2023-01-08T04:40:58.047Z,2.276
2023-01-08T04:41:58.071Z,2.276
2023-01-08T04:42:58.140Z,2.306
2023-01-08T04:43:58.184Z,2.32
2023-01-08T04:44:58.208Z,2.312
2023-01-08T04:45:58.248Z,2.341
2023-01-08T04:46:58.268Z,2.356
2023-01-08T04:47:58.299Z,2.356
2023-01-08T04:48:58.376Z,2.385
2023-01-08T04:49:58.370Z,2.399
2023-01-08T04:50:58.411Z,2.428
2023-01-08T04:51:58.451Z,2.457
2023-01-08T04:52:58.474Z,2.507
2023-01-08T04:53:58.522Z,2.547
2023-01-08T04:54:58.543Z,2.547
2023-01-08T04:55:58.601Z,2.57
2023-01-08T04:56:58.621Z,2.57
2023-01-08T04:57:58.649Z,2.593
2023-01-08T04:58:58.692Z,2.579
2023-01-08T04:59:58.726Z,2.579
2023-01-08T05:00:58.770Z,2.586
2023-01-08T05:01:58.961Z,2.572
2023-01-08T05:02:58.981Z,2.557
2023-01-08T05:03:58.874Z,2.543
2023-01-08T05:04:58.903Z,2.569
2023-01-08T05:05:58.973Z,2.59
2023-01-08T05:06:58.987Z,2.59
2023-01-08T05:07:59.019Z,2.558
2023-01-08T05:08:59.039Z,2.563
2023-01-08T05:09:59.067Z,2.549
2023-01-08T05:10:59.123Z,2.557
2023-01-08T05:11:59.141Z,2.557
2023-01-08T05:12:59.178Z,2.579
2023-01-08T05:13:59.212Z,2.564
2023-01-08T05:14:59.308Z,2.6
2023-01-08T05:15:59.357Z,2.626
2023-01-08T05:16:59.313Z,2.612
2023-01-08T05:17:59.350Z,2.597
2023-01-08T05:18:59.373Z,2.59
2023-01-08T05:19:59.410Z,2.561
2023-01-08T05:20:59.457Z,2.568
2023-01-08T05:21:59.497Z,2.539
2023-01-08T05:22:59.580Z,2.524
2023-01-08T05:23:59.552Z,2.559
2023-01-08T05:24:59.584Z,2.585
2023-01-08T05:25:59.611Z,2.571
2023-01-08T05:26:59.661Z,2.578
2023-01-08T05:27:59.706Z,2.578
2023-01-08T05:28:59.719Z,2.571
2023-01-08T05:29:59.745Z,2.541
2023-01-08T05:30:59.847Z,2.549
2023-01-08T05:31:59.809Z,2.549
2023-01-08T05:32:59.862Z,2.549
2023-01-08T05:33:59.921Z,2.557
2023-01-08T05:34:59.923Z,2.542
2023-01-08T05:35:59.956Z,2.563
2023-01-08T05:36:59.980Z,2.588
2023-01-08T05:38:00.014Z,2.573
2023-01-08T05:39:00.084Z,2.525
2023-01-08T05:40:00.200Z,2.525
2023-01-08T05:41:00.177Z,2.532
2023-01-08T05:42:00.148Z,2.517
2023-01-08T05:43:00.189Z,2.525
2023-01-08T05:44:00.211Z,2.51
2023-01-08T05:45:00.242Z,2.495
2023-01-08T05:46:00.371Z,2.518
2023-01-08T05:47:00.303Z,2.538
2023-01-08T05:48:00.334Z,2.538
2023-01-08T05:49:00.372Z,2.508
2023-01-08T05:50:00.481Z,2.53
2023-01-08T05:51:00.459Z,2.485
2023-01-08T05:52:00.485Z,2.47
2023-01-08T05:53:00.533Z,2.454
2023-01-08T05:54:00.549Z,2.462
2023-01-08T05:55:00.585Z,2.447
2023-01-08T05:56:00.639Z,2.482
2023-01-08T05:57:00.666Z,2.484
2023-01-08T05:58:00.698Z,2.469
2023-01-08T05:59:00.735Z,2.453
2023-01-08T06:00:00.782Z,2.461
2023-01-08T06:01:00.823Z,2.476
2023-01-08T06:02:00.827Z,2.461
2023-01-08T06:03:00.982Z,2.43
2023-01-08T06:04:00.967Z,2.453
2023-01-08T06:05:00.942Z,2.453
2023-01-08T06:06:01.004Z,2.491
2023-01-08T06:07:01.009Z,2.457
2023-01-08T06:08:01.050Z,2.442
2023-01-08T06:09:01.080Z,2.442
2023-01-08T06:10:01.132Z,2.442
2023-01-08T06:11:01.185Z,2.442
2023-01-08T06:12:01.206Z,2.465
2023-01-08T06:13:01.225Z,2.449
2023-01-08T06:14:01.261Z,2.449
2023-01-08T06:15:01.304Z,2.449
2023-01-08T06:16:01.496Z,2.434
2023-01-08T06:17:01.370Z,2.436
2023-01-08T06:18:01.404Z,2.471
2023-01-08T06:19:01.436Z,2.471
2023-01-08T06:20:01.471Z,2.455
2023-01-08T06:21:01.508Z,2.44
2023-01-08T06:22:01.557Z,2.44
2023-01-08T06:23:01.579Z,2.44
2023-01-08T06:24:01.627Z,2.455
2023-01-08T06:25:01.655Z,2.44
2023-01-08T06:26:01.685Z,2.447
2023-01-08T06:27:01.722Z,2.416
2023-01-08T06:28:01.778Z,2.416
2023-01-08T06:29:01.775Z,2.431
2023-01-08T06:30:01.831Z,2.4
2023-01-08T06:31:01.936Z,2.385
2023-01-08T06:32:01.937Z,2.4
2023-01-08T06:33:01.963Z,2.4
2023-01-08T06:34:01.984Z,2.4
2023-01-08T06:35:01.991Z,2.4
2023-01-08T06:36:02.029Z,2.4
2023-01-08T06:37:02.062Z,2.385
2023-01-08T06:38:02.105Z,2.403
2023-01-08T06:39:02.139Z,2.389
2023-01-08T06:40:02.185Z,2.427
2023-01-08T06:41:02.209Z,2.427
2023-01-08T06:42:02.241Z,2.427
2023-01-08T06:43:02.280Z,2.427
2023-01-08T06:44:02.322Z,2.411
2023-01-08T06:45:02.374Z,2.411
2023-01-08T06:46:02.401Z,2.427
2023-01-08T06:47:02.422Z,2.427
2023-01-08T06:48:02.457Z,2.427
2023-01-08T06:49:02.492Z,2.427
2023-01-08T06:50:02.525Z,2.45
2023-01-08T06:51:02.577Z,2.434
2023-01-08T06:52:02.600Z,2.419
2023-01-08T06:53:02.639Z,2.403
2023-01-08T06:54:02.657Z,2.419
2023-01-08T06:55:02.709Z,2.419
2023-01-08T06:56:02.741Z,2.469
2023-01-08T06:57:02.789Z,2.469
2023-01-08T06:58:02.848Z,2.501
2023-01-08T06:59:02.855Z,2.516
2023-01-08T07:00:02.883Z,2.501
2023-01-08T07:01:02.925Z,2.519
2023-01-08T07:02:03.219Z,2.516
2023-01-08T07:03:03.228Z,2.539
2023-01-08T07:04:03.031Z,2.539
2023-01-08T07:05:03.060Z,2.555
2023-01-08T07:06:03.092Z,2.555
2023-01-08T07:07:03.127Z,2.57
2023-01-08T07:08:03.156Z,2.57
2023-01-08T07:09:03.201Z,2.586
2023-01-08T07:10:03.241Z,2.617
2023-01-08T07:11:03.273Z,2.617
2023-01-08T07:12:03.311Z,2.601
2023-01-08T07:13:03.334Z,2.601
2023-01-08T07:14:03.362Z,2.617
2023-01-08T07:15:03.407Z,2.632
2023-01-08T07:16:03.472Z,2.648
2023-01-08T07:17:03.477Z,2.632
2023-01-08T07:18:03.504Z,2.663
2023-01-08T07:19:03.556Z,2.679
2023-01-08T07:20:03.583Z,2.709
2023-01-08T07:21:03.610Z,2.742
2023-01-08T07:22:03.654Z,2.742
2023-01-08T07:23:03.688Z,2.735
2023-01-08T07:24:03.762Z,2.766
2023-01-08T07:25:03.755Z,2.819
2023-01-08T07:26:03.801Z,2.774
2023-01-08T07:27:03.827Z,2.789
2023-01-08T07:28:03.869Z,2.805
2023-01-08T07:29:03.935Z,2.82
2023-01-08T07:30:03.949Z,2.85
2023-01-08T07:31:04.012Z,2.881
2023-01-08T07:32:04.013Z,2.896
2023-01-08T07:33:04.051Z,2.896
2023-01-08T07:34:04.082Z,2.911
2023-01-08T07:35:04.110Z,2.926
2023-01-08T07:36:04.143Z,2.972
2023-01-08T07:37:04.198Z,2.987
2023-01-08T07:38:04.224Z,3.017
2023-01-08T07:39:04.251Z,3.032
2023-01-08T07:40:04.307Z,3.062
2023-01-08T07:41:04.331Z,3.107
2023-01-08T07:42:04.384Z,3.097
2023-01-08T07:43:04.433Z,3.079
2023-01-08T07:44:04.439Z,3.109
2023-01-08T07:45:04.496Z,3.123
2023-01-08T07:46:04.576Z,3.153
2023-01-08T07:47:04.561Z,3.168
2023-01-08T07:48:04.621Z,3.183
2023-01-08T07:49:04.623Z,3.183
2023-01-08T07:50:04.651Z,3.198
2023-01-08T07:51:04.701Z,3.213
2023-01-08T07:52:04.728Z,3.227
2023-01-08T07:53:04.789Z,3.257
2023-01-08T07:54:04.796Z,3.272
2023-01-08T07:55:04.924Z,3.286
2023-01-08T07:56:04.871Z,3.301
2023-01-08T07:57:04.902Z,3.316
2023-01-08T07:58:04.929Z,3.331
2023-01-08T07:59:04.963Z,3.345
2023-01-08T08:00:05.018Z,3.292
2023-01-08T08:01:05.039Z,3.306
2023-01-08T08:02:05.245Z,3.306
2023-01-08T08:03:05.230Z,3.321
2023-01-08T08:04:05.141Z,3.35
2023-01-08T08:05:05.176Z,3.365
2023-01-08T08:06:05.208Z,3.372
2023-01-08T08:07:05.252Z,3.394
2023-01-08T08:08:05.285Z,3.409
2023-01-08T08:09:05.321Z,3.409
2023-01-08T08:10:05.363Z,3.394
2023-01-08T08:11:05.427Z,3.409
2023-01-08T08:12:05.452Z,3.423
2023-01-08T08:13:05.472Z,3.423
2023-01-08T08:14:05.520Z,3.438
2023-01-08T08:15:05.551Z,3.438
2023-01-08T08:16:05.700Z,3.438
2023-01-08T08:17:05.603Z,3.438
2023-01-08T08:18:05.632Z,3.438
2023-01-08T08:19:05.662Z,3.452
2023-01-08T08:20:05.692Z,3.452
2023-01-08T08:21:05.739Z,3.452
2023-01-08T08:22:05.769Z,3.452
2023-01-08T08:23:05.897Z,3.467
2023-01-08T08:24:05.843Z,3.467
2023-01-08T08:25:05.874Z,3.482
2023-01-08T08:26:05.919Z,3.482
2023-01-08T08:27:05.945Z,3.482
2023-01-08T08:28:06.018Z,3.482
2023-01-08T08:29:06.030Z,3.496
2023-01-08T08:30:06.073Z,3.496
2023-01-08T08:31:06.216Z,3.51
2023-01-08T08:32:06.119Z,3.533
2023-01-08T08:33:06.158Z,3.533
2023-01-08T08:34:06.192Z,3.519
2023-01-08T08:35:06.232Z,3.519
2023-01-08T08:36:06.268Z,3.519
2023-01-08T08:37:06.306Z,3.519
2023-01-08T08:38:06.343Z,3.519
2023-01-08T08:39:06.367Z,3.519
2023-01-08T08:40:06.417Z,3.533
2023-01-08T08:41:06.447Z,3.533
2023-01-08T08:42:06.479Z,3.556
2023-01-08T08:43:06.522Z,3.556
2023-01-08T08:44:06.545Z,3.556
2023-01-08T08:45:06.614Z,3.556
2023-01-08T08:46:06.614Z,3.542
2023-01-08T08:47:06.692Z,3.542
2023-01-08T08:48:06.692Z,3.542
2023-01-08T08:49:06.734Z,3.556
2023-01-08T08:50:06.769Z,3.542
2023-01-08T08:51:06.783Z,3.542
2023-01-08T08:52:06.827Z,3.556
2023-01-08T08:53:06.859Z,3.542
2023-01-08T08:54:06.882Z,3.542
2023-01-08T08:55:06.928Z,3.556
2023-01-08T08:56:06.951Z,3.556
2023-01-08T08:57:06.990Z,3.556
2023-01-08T08:58:07.016Z,3.542
2023-01-08T08:59:07.047Z,3.542
2023-01-08T09:00:07.085Z,3.527
2023-01-08T09:01:07.121Z,3.527
2023-01-08T09:02:07.338Z,3.527
2023-01-08T09:03:07.326Z,3.527
2023-01-08T09:04:07.252Z,3.513
2023-01-08T09:05:07.257Z,3.498
2023-01-08T09:06:07.284Z,3.498
2023-01-08T09:07:07.331Z,3.521
2023-01-08T09:08:07.379Z,3.524
2023-01-08T09:09:07.392Z,3.574
2023-01-08T09:10:07.439Z,3.56
2023-01-08T09:11:07.472Z,3.56
2023-01-08T09:12:07.524Z,3.56
2023-01-08T09:13:07.546Z,3.545
2023-01-08T09:14:07.572Z,3.545
2023-01-08T09:15:07.602Z,3.583
2023-01-08T09:16:07.715Z,3.597
2023-01-08T09:17:07.683Z,3.597
2023-01-08T09:18:07.738Z,3.583
2023-01-08T09:19:07.746Z,3.597
2023-01-08T09:20:07.778Z,3.612
2023-01-08T09:21:07.809Z,3.583
2023-01-08T09:22:07.853Z,3.583
2023-01-08T09:23:07.892Z,3.583
2023-01-08T09:24:07.924Z,3.597
2023-01-08T09:25:07.960Z,3.597
2023-01-08T09:26:07.991Z,3.605
2023-01-08T09:27:09.640Z,3.583
2023-01-08T09:28:08.078Z,3.605
2023-01-08T09:29:08.086Z,3.605
2023-01-08T09:30:08.120Z,3.605
2023-01-08T09:31:08.162Z,3.605
2023-01-08T09:32:08.238Z,3.605
2023-01-08T09:33:08.209Z,3.605
2023-01-08T09:34:08.259Z,3.62
2023-01-08T09:35:08.283Z,3.635
2023-01-08T09:36:08.313Z,3.635
2023-01-08T09:37:08.355Z,3.635
2023-01-08T09:38:08.386Z,3.649
2023-01-08T09:39:08.439Z,3.672
2023-01-08T09:40:08.481Z,3.658
2023-01-08T09:41:08.502Z,3.643
2023-01-08T09:42:08.531Z,3.643
2023-01-08T09:43:08.564Z,3.658
2023-01-08T09:44:08.608Z,3.678
2023-01-08T09:45:08.635Z,3.693
2023-01-08T09:46:08.679Z,3.678
2023-01-08T09:47:08.705Z,3.693
2023-01-08T09:48:08.718Z,3.708
2023-01-08T09:49:08.757Z,3.708
2023-01-08T09:50:08.798Z,3.722
2023-01-08T09:51:08.865Z,3.737
2023-01-08T09:52:08.864Z,3.751
2023-01-08T09:53:08.899Z,3.751
2023-01-08T09:54:08.942Z,3.737
2023-01-08T09:55:08.970Z,3.737
2023-01-08T09:56:10.614Z,3.737
2023-01-08T09:57:09.038Z,3.722
2023-01-08T09:58:09.065Z,3.737
2023-01-08T09:59:09.109Z,3.737
2023-01-08T10:00:09.128Z,3.751
2023-01-08T10:01:09.264Z,3.737
2023-01-08T10:02:09.376Z,3.737
2023-01-08T10:03:09.230Z,3.766
2023-01-08T10:04:09.267Z,3.766
2023-01-08T10:05:09.311Z,3.803
2023-01-08T10:06:09.364Z,3.803
2023-01-08T10:07:09.382Z,3.803
2023-01-08T10:08:09.426Z,3.818
2023-01-08T10:09:09.472Z,3.832
2023-01-08T10:10:09.497Z,3.832
2023-01-08T10:11:09.529Z,3.832
2023-01-08T10:12:09.568Z,3.832
2023-01-08T10:13:09.601Z,3.846
2023-01-08T10:14:09.643Z,3.875
2023-01-08T10:15:09.673Z,3.875
2023-01-08T10:16:09.795Z,3.904
2023-01-08T10:17:11.653Z,3.918
2023-01-08T10:18:09.817Z,3.91
2023-01-08T10:19:09.818Z,3.947
2023-01-08T10:20:09.840Z,3.953
2023-01-08T10:21:09.870Z,3.99
2023-01-08T10:22:09.933Z,4.004
2023-01-08T10:23:09.960Z,4.072
2023-01-08T10:24:09.981Z,4.072
2023-01-08T10:25:10.038Z,4.069
2023-01-08T10:26:10.057Z,4.1
2023-01-08T10:27:10.142Z,4.1
2023-01-08T10:28:10.131Z,4.114
2023-01-08T10:29:10.196Z,4.111
2023-01-08T10:30:10.206Z,4.149
2023-01-08T10:31:10.278Z,4.149
2023-01-08T10:32:10.261Z,4.149
2023-01-08T10:33:10.288Z,4.163
2023-01-08T10:34:10.327Z,4.163
2023-01-08T10:35:10.363Z,4.177
2023-01-08T10:36:10.398Z,4.213
2023-01-08T10:37:10.428Z,4.213
2023-01-08T10:38:10.515Z,4.232
2023-01-08T10:39:10.499Z,4.276
2023-01-08T10:40:10.536Z,4.276
2023-01-08T10:41:10.567Z,4.276
2023-01-08T10:42:10.615Z,4.299
2023-01-08T10:43:10.666Z,4.285
2023-01-08T10:44:10.680Z,4.285
2023-01-08T10:45:10.728Z,4.271
2023-01-08T10:46:10.791Z,4.271
2023-01-08T10:47:10.792Z,4.293
2023-01-08T10:48:10.815Z,4.278
2023-01-08T10:49:10.853Z,4.264
2023-01-08T10:50:10.892Z,4.25
2023-01-08T10:51:10.928Z,4.304
2023-01-08T10:52:10.963Z,4.304
2023-01-08T10:53:10.992Z,4.304
2023-01-08T10:54:11.029Z,4.304
2023-01-08T10:55:11.054Z,4.304
2023-01-08T10:56:11.086Z,4.304
2023-01-08T10:57:11.113Z,4.304
2023-01-08T10:58:11.151Z,4.304
2023-01-08T10:59:11.193Z,4.304
2023-01-08T11:00:11.223Z,4.304
2023-01-08T11:01:11.347Z,4.304
2023-01-08T11:02:11.391Z,4.304
2023-01-08T11:03:11.321Z,4.341
2023-01-08T11:04:11.365Z,4.355
2023-01-08T11:05:11.699Z,4.373
2023-01-08T11:06:11.441Z,4.387
2023-01-08T11:07:11.473Z,4.401
2023-01-08T11:08:11.505Z,4.41
2023-01-08T11:09:11.541Z,4.41
2023-01-08T11:10:11.577Z,4.447
2023-01-08T11:11:11.615Z,4.501
2023-01-08T11:12:11.640Z,4.487
2023-01-08T11:13:11.681Z,4.509
2023-01-08T11:14:11.716Z,4.509
2023-01-08T11:15:11.746Z,4.495
2023-01-08T11:16:11.825Z,4.489
2023-01-08T11:17:11.829Z,4.475
2023-01-08T11:18:11.850Z,4.46
2023-01-08T11:19:11.891Z,4.455
2023-01-08T11:20:11.934Z,4.412
2023-01-08T11:21:11.957Z,4.383
2023-01-08T11:22:11.999Z,4.368
2023-01-08T11:23:12.040Z,4.368
2023-01-08T11:24:12.084Z,4.383
2023-01-08T11:25:13.905Z,4.436
2023-01-08T11:26:12.153Z,4.436
2023-01-08T11:27:12.181Z,4.436
2023-01-08T11:28:12.231Z,4.45
2023-01-08T11:29:12.271Z,4.473
2023-01-08T11:30:12.288Z,4.487
2023-01-08T11:31:12.390Z,4.487
2023-01-08T11:32:12.360Z,4.47
2023-01-08T11:33:12.395Z,4.47
2023-01-08T11:34:12.448Z,4.5
2023-01-08T11:35:12.487Z,4.456
2023-01-08T11:36:14.772Z,4.456
2023-01-08T11:37:12.532Z,4.456
2023-01-08T11:38:12.583Z,4.456
2023-01-08T11:39:12.596Z,4.456
2023-01-08T11:40:12.644Z,4.427
2023-01-08T11:41:12.660Z,4.413
2023-01-08T11:42:12.698Z,4.398
2023-01-08T11:43:12.729Z,4.398
2023-01-08T11:44:12.773Z,4.384
2023-01-08T11:45:12.818Z,4.384
2023-01-08T11:46:12.818Z,4.369
2023-01-08T11:47:12.872Z,4.369
2023-01-08T11:48:14.531Z,4.369
2023-01-08T11:49:12.931Z,4.369
2023-01-08T11:50:12.975Z,4.369
2023-01-08T11:51:13.011Z,4.391
2023-01-08T11:52:13.058Z,4.391
2023-01-08T11:53:13.074Z,4.377
2023-01-08T11:54:14.327Z,4.362
2023-01-08T11:55:13.154Z,4.377
2023-01-08T11:56:13.173Z,4.377
2023-01-08T11:57:13.203Z,4.46
2023-01-08T11:58:13.265Z,4.445
2023-01-08T11:59:13.277Z,4.43
2023-01-08T12:00:14.424Z,4.401
2023-01-08T12:01:13.442Z,4.424
2023-01-08T12:02:13.440Z,4.41
2023-01-08T12:03:13.425Z,4.424
2023-01-08T12:04:13.448Z,4.424
2023-01-08T12:05:13.491Z,4.424
2023-01-08T12:06:13.527Z,4.41
2023-01-08T12:07:13.544Z,4.424
2023-01-08T12:08:13.573Z,4.439
2023-01-08T12:09:13.604Z,4.439
2023-01-08T12:10:13.639Z,4.453
2023-01-08T12:11:13.676Z,4.468
2023-01-08T12:12:15.117Z,4.506
2023-01-08T12:13:13.736Z,4.506
2023-01-08T12:14:13.777Z,4.535
2023-01-08T12:15:13.826Z,4.521
2023-01-08T12:16:13.908Z,4.521
2023-01-08T12:17:13.869Z,4.535
2023-01-08T12:18:13.905Z,4.504
2023-01-08T12:19:13.948Z,4.489
2023-01-08T12:20:13.968Z,4.43
2023-01-08T12:21:14.022Z,4.445
2023-01-08T12:22:14.034Z,4.437
2023-01-08T12:23:14.081Z,4.474
2023-01-08T12:24:14.108Z,4.474
2023-01-08T12:25:14.140Z,4.445
2023-01-08T12:26:14.174Z,4.43
2023-01-08T12:27:14.206Z,4.416
2023-01-08T12:28:14.245Z,4.433
2023-01-08T12:29:14.290Z,4.404
2023-01-08T12:30:14.326Z,4.389
2023-01-08T12:31:14.499Z,4.374
2023-01-08T12:32:14.451Z,4.374
2023-01-08T12:33:14.423Z,4.366
2023-01-08T12:34:14.456Z,4.381
2023-01-08T12:35:14.504Z,4.366
2023-01-08T12:36:14.544Z,4.351
2023-01-08T12:37:14.558Z,4.374
2023-01-08T12:38:14.642Z,4.337
2023-01-08T12:39:14.625Z,4.322
2023-01-08T12:40:14.695Z,4.255
2023-01-08T12:41:14.682Z,4.269
2023-01-08T12:42:14.728Z,4.269
2023-01-08T12:43:14.826Z,4.269
2023-01-08T12:44:14.784Z,4.299
2023-01-08T12:45:14.820Z,4.284
2023-01-08T12:46:15.041Z,4.269
2023-01-08T12:47:14.886Z,4.269
2023-01-08T12:48:14.951Z,4.269
2023-01-08T12:49:14.949Z,4.269
2023-01-08T12:50:14.968Z,4.269
2023-01-08T12:51:15.004Z,4.255
2023-01-08T12:52:15.037Z,4.246
2023-01-08T12:53:15.102Z,4.246
2023-01-08T12:54:15.108Z,4.246
2023-01-08T12:55:15.146Z,4.246
2023-01-08T12:56:15.175Z,4.261